createdAt,value
2022-12-03T00:00:11.813Z,2.30
2022-12-03T00:02:39.884Z,2.30
2022-12-03T00:05:07.341Z,2.30
2022-12-03T00:07:36.065Z,2.30
2022-12-03T00:10:05.092Z,2.30
2022-12-03T00:12:32.734Z,2.30
2022-12-03T00:15:00.432Z,2.30
2022-12-03T00:17:27.797Z,2.30
2022-12-03T00:19:55.076Z,2.30
2022-12-03T00:22:22.247Z,2.30
2022-12-03T00:24:49.702Z,2.30
2022-12-03T00:27:16.964Z,2.30
2022-12-03T00:29:44.456Z,2.30
2022-12-03T00:32:11.971Z,2.30
2022-12-03T00:34:39.176Z,2.20
2022-12-03T00:37:06.613Z,2.30
2022-12-03T00:39:34.401Z,2.30
2022-12-03T00:42:01.672Z,2.30
2022-12-03T00:44:28.900Z,2.30
2022-12-03T00:46:56.216Z,2.30
2022-12-03T00:49:23.501Z,2.30
2022-12-03T00:51:50.874Z,2.30
2022-12-03T00:54:18.259Z,2.30
2022-12-03T00:56:45.450Z,2.30
2022-12-03T00:59:12.878Z,2.20
2022-12-03T01:01:41.067Z,2.20
2022-12-03T01:04:08.485Z,2.20
2022-12-03T01:06:35.811Z,2.20
2022-12-03T01:09:03.585Z,2.20
2022-12-03T01:11:40.830Z,2.20
2022-12-03T01:14:15.389Z,2.20
2022-12-03T01:16:43.369Z,2.20
2022-12-03T01:19:15.907Z,2.30
2022-12-03T01:21:45.026Z,2.30
2022-12-03T01:24:12.422Z,2.30
2022-12-03T01:26:39.774Z,2.30
2022-12-03T01:29:07.650Z,2.30
2022-12-03T01:31:53.345Z,2.30
2022-12-03T01:34:20.881Z,2.30
2022-12-03T01:36:48.234Z,2.30
2022-12-03T01:39:15.592Z,2.30
2022-12-03T01:41:42.835Z,2.30
2022-12-03T01:44:30.588Z,2.30
2022-12-03T01:47:00.203Z,2.30
2022-12-03T01:49:39.832Z,2.30
2022-12-03T01:52:17.461Z,2.30
2022-12-03T01:54:53.983Z,2.30
2022-12-03T01:57:41.518Z,2.30
2022-12-03T02:00:17.686Z,2.30
2022-12-03T02:02:45.653Z,2.30
2022-12-03T02:05:22.547Z,2.30
2022-12-03T02:07:50.340Z,2.30
2022-12-03T02:10:21.151Z,2.30
2022-12-03T02:12:51.571Z,2.30
2022-12-03T02:15:18.925Z,2.30
2022-12-03T02:17:46.426Z,2.30
2022-12-03T02:20:15.113Z,2.30
2022-12-03T02:22:53.156Z,2.30
2022-12-03T02:25:29.372Z,2.30
2022-12-03T02:27:56.679Z,2.30
2022-12-03T02:30:26.137Z,2.30
2022-12-03T02:32:54.906Z,2.30
2022-12-03T02:35:24.775Z,2.20
2022-12-03T02:38:00.274Z,2.30
2022-12-03T02:40:30.930Z,2.20
2022-12-03T02:43:01.419Z,2.20
2022-12-03T02:45:38.767Z,2.20
2022-12-03T02:48:19.669Z,2.20
2022-12-03T02:50:52.677Z,2.10
2022-12-03T02:53:26.818Z,2.10
2022-12-03T02:55:56.037Z,2.20
2022-12-03T02:58:24.743Z,2.20
2022-12-03T03:00:54.229Z,2.20
2022-12-03T03:03:23.712Z,2.20
2022-12-03T03:05:51.783Z,2.20
2022-12-03T03:08:20.200Z,2.30
2022-12-03T03:10:48.066Z,2.20
2022-12-03T03:13:17.961Z,2.30
2022-12-03T03:15:45.642Z,2.30
2022-12-03T03:18:14.430Z,2.30
2022-12-03T03:20:42.114Z,2.30
2022-12-03T03:23:12.412Z,2.20
2022-12-03T03:25:42.546Z,2.30
2022-12-03T03:28:10.537Z,2.20
2022-12-03T03:30:40.272Z,2.20
2022-12-03T03:33:07.965Z,2.20
2022-12-03T03:35:36.376Z,2.20
2022-12-03T03:38:04.458Z,2.30
2022-12-03T03:40:31.948Z,2.30
2022-12-03T03:43:00.859Z,2.30
2022-12-03T03:45:29.533Z,2.30
2022-12-03T03:47:59.102Z,2.30
2022-12-03T03:50:29.553Z,2.30
2022-12-03T03:52:59.053Z,2.30
2022-12-03T03:55:26.462Z,2.30
2022-12-03T03:57:53.721Z,2.30
2022-12-03T04:00:21.006Z,2.30
2022-12-03T04:02:48.225Z,2.30
2022-12-03T04:05:20.828Z,2.30
2022-12-03T04:07:48.218Z,2.30
2022-12-03T04:10:34.902Z,2.30
2022-12-03T04:13:02.422Z,2.30
2022-12-03T04:15:30.084Z,2.30
2022-12-03T04:18:15.942Z,2.30
2022-12-03T04:20:43.255Z,2.30
2022-12-03T04:23:10.621Z,2.30
2022-12-03T04:25:56.473Z,2.30
2022-12-03T04:28:42.278Z,2.20
2022-12-03T04:31:28.026Z,2.30
2022-12-03T04:34:13.901Z,2.30
2022-12-03T04:36:41.101Z,2.30
2022-12-03T04:39:08.353Z,2.20
2022-12-03T04:41:35.524Z,2.20
2022-12-03T04:44:21.490Z,2.20
2022-12-03T04:46:48.801Z,2.20
2022-12-03T04:49:16.057Z,2.30
2022-12-03T04:51:43.269Z,2.20
2022-12-03T04:54:10.470Z,2.20
2022-12-03T04:56:37.698Z,2.20
2022-12-03T04:59:05.012Z,2.30
2022-12-03T05:01:32.353Z,2.30
2022-12-03T05:03:59.849Z,2.30
2022-12-03T05:06:27.081Z,2.30
2022-12-03T05:08:54.426Z,2.20
2022-12-03T05:11:21.664Z,2.20
2022-12-03T05:13:48.891Z,2.30
2022-12-03T05:16:16.183Z,2.30
2022-12-03T05:18:43.432Z,2.30
2022-12-03T05:21:10.719Z,2.30
2022-12-03T05:23:37.900Z,2.30
2022-12-03T05:26:05.158Z,2.30
2022-12-03T05:28:34.144Z,2.30
2022-12-03T05:31:01.432Z,2.30
2022-12-03T05:33:28.720Z,2.30
2022-12-03T05:35:56.036Z,2.30
2022-12-03T05:38:23.342Z,2.40
2022-12-03T05:40:50.584Z,2.30
2022-12-03T05:43:17.857Z,2.30
2022-12-03T05:45:45.273Z,2.40
2022-12-03T05:48:15.975Z,2.40
2022-12-03T05:50:45.690Z,2.30
2022-12-03T05:53:17.452Z,2.30
2022-12-03T05:55:44.713Z,2.40
2022-12-03T05:58:12.096Z,2.30
2022-12-03T06:00:42.854Z,2.30
2022-12-03T06:03:11.024Z,2.30
2022-12-03T06:05:38.559Z,2.40
2022-12-03T06:08:05.981Z,2.40
2022-12-03T06:10:33.375Z,2.40
2022-12-03T06:13:01.052Z,2.40
2022-12-03T06:15:28.417Z,2.30
2022-12-03T06:17:55.741Z,2.40
2022-12-03T06:20:22.994Z,2.40
2022-12-03T06:22:50.213Z,2.40
2022-12-03T06:25:17.767Z,2.40
2022-12-03T06:27:45.157Z,2.40
2022-12-03T06:30:14.421Z,2.40
2022-12-03T06:32:41.761Z,2.40
2022-12-03T06:35:09.603Z,2.40
2022-12-03T06:37:36.826Z,2.40
2022-12-03T06:40:04.508Z,2.40
2022-12-03T06:42:31.736Z,2.40
2022-12-03T06:44:58.948Z,2.40
2022-12-03T06:47:26.144Z,2.30
2022-12-03T06:49:53.397Z,2.40
2022-12-03T06:52:20.696Z,2.40
2022-12-03T06:54:47.905Z,2.40
2022-12-03T06:57:15.319Z,2.40
2022-12-03T06:59:42.626Z,2.40
2022-12-03T07:02:11.652Z,2.40
2022-12-03T07:04:42.121Z,2.40
2022-12-03T07:07:13.402Z,2.40
2022-12-03T07:09:40.676Z,2.40
2022-12-03T07:12:07.930Z,2.40
2022-12-03T07:14:35.261Z,2.40
2022-12-03T07:17:02.536Z,2.40
2022-12-03T07:19:32.811Z,2.40
2022-12-03T07:22:00.779Z,2.40
2022-12-03T07:24:28.332Z,2.40
2022-12-03T07:26:55.634Z,2.40
2022-12-03T07:29:22.940Z,2.40
2022-12-03T07:31:50.417Z,2.40
2022-12-03T07:34:17.889Z,2.40
2022-12-03T07:36:45.090Z,2.50
2022-12-03T07:39:12.816Z,2.50
2022-12-03T07:41:40.060Z,2.50
2022-12-03T07:44:12.565Z,2.50
2022-12-03T07:46:42.381Z,2.50
2022-12-03T07:49:09.839Z,2.50
2022-12-03T07:51:37.159Z,2.50
2022-12-03T07:54:05.142Z,2.50
2022-12-03T07:56:32.550Z,2.50
2022-12-03T07:58:59.895Z,2.50
2022-12-03T08:01:27.384Z,2.50
2022-12-03T08:03:54.722Z,2.50
2022-12-03T08:06:21.963Z,2.50
2022-12-03T08:08:49.282Z,2.50
2022-12-03T08:11:16.578Z,2.60
2022-12-03T08:13:43.842Z,2.50
2022-12-03T08:16:18.630Z,2.50
2022-12-03T08:18:47.778Z,2.60
2022-12-03T08:21:17.834Z,2.50
2022-12-03T08:23:45.492Z,2.60
2022-12-03T08:26:18.083Z,2.60
2022-12-03T08:28:45.943Z,2.70
2022-12-03T08:31:19.933Z,2.70
2022-12-03T08:33:49.556Z,2.70
2022-12-03T08:36:24.280Z,2.70
2022-12-03T08:38:57.180Z,2.70
2022-12-03T08:41:43.054Z,2.70
2022-12-03T08:44:29.947Z,2.80
2022-12-03T08:47:09.484Z,2.80
2022-12-03T08:49:37.771Z,2.80
2022-12-03T08:52:19.936Z,2.90
2022-12-03T08:54:57.758Z,2.90
2022-12-03T08:57:33.249Z,3.00
2022-12-03T09:00:19.900Z,3.00
2022-12-03T09:02:51.330Z,3.00
2022-12-03T09:05:21.528Z,3.00
2022-12-03T09:08:04.043Z,3.10
2022-12-03T09:10:31.367Z,3.10
2022-12-03T09:12:58.558Z,3.10
2022-12-03T09:15:25.859Z,3.10
2022-12-03T09:17:53.065Z,3.10
2022-12-03T09:20:20.352Z,3.10
2022-12-03T09:22:47.643Z,3.20
2022-12-03T09:25:15.110Z,3.20
2022-12-03T09:27:42.640Z,3.20
2022-12-03T09:30:10.236Z,3.10
2022-12-03T09:32:37.502Z,3.10
2022-12-03T09:35:05.118Z,3.10
2022-12-03T09:37:32.368Z,3.10
2022-12-03T09:40:03.267Z,3.20
2022-12-03T09:42:31.004Z,3.20
2022-12-03T09:44:58.431Z,3.10
2022-12-03T09:47:25.850Z,3.20
2022-12-03T09:49:53.583Z,3.10
2022-12-03T09:52:28.110Z,3.20
2022-12-03T09:54:55.818Z,3.20
2022-12-03T09:57:23.398Z,3.30
2022-12-03T09:59:50.811Z,3.20
2022-12-03T10:02:26.570Z,3.30
2022-12-03T10:04:54.631Z,3.20
2022-12-03T10:07:23.017Z,3.20
2022-12-03T10:09:50.449Z,3.20
2022-12-03T10:12:24.572Z,3.30
2022-12-03T10:14:53.559Z,3.30
2022-12-03T10:17:21.130Z,3.30
2022-12-03T10:19:48.713Z,3.30
2022-12-03T10:22:15.915Z,3.30
2022-12-03T10:24:45.021Z,3.40
2022-12-03T10:27:30.306Z,3.40
2022-12-03T10:29:59.876Z,3.50
2022-12-03T10:32:42.054Z,3.60
2022-12-03T10:35:09.702Z,3.60
2022-12-03T10:37:37.014Z,3.60
2022-12-03T10:40:09.307Z,3.70
2022-12-03T10:42:41.402Z,3.70
2022-12-03T10:45:08.619Z,3.70
2022-12-03T10:47:36.207Z,3.70
2022-12-03T10:50:07.448Z,3.70
2022-12-03T10:52:34.705Z,3.70
2022-12-03T10:55:02.318Z,3.80
2022-12-03T10:57:29.540Z,3.80
2022-12-03T10:59:56.832Z,3.80
2022-12-03T11:02:24.833Z,3.80
2022-12-03T11:04:52.821Z,3.80
2022-12-03T11:07:21.906Z,3.70
2022-12-03T11:09:52.432Z,3.70
2022-12-03T11:12:37.976Z,3.70
2022-12-03T11:15:06.602Z,3.70
2022-12-03T11:17:45.053Z,3.60
2022-12-03T11:20:18.067Z,3.60
2022-12-03T11:22:54.060Z,3.70
2022-12-03T11:25:27.362Z,3.70
2022-12-03T11:28:15.667Z,3.80
2022-12-03T11:30:49.043Z,3.80
2022-12-03T11:33:22.922Z,3.70
2022-12-03T11:36:03.894Z,3.70
2022-12-03T11:38:52.974Z,3.80
2022-12-03T11:41:30.221Z,3.80
2022-12-03T11:43:59.082Z,3.80
2022-12-03T11:46:29.505Z,3.80
2022-12-03T11:48:59.648Z,3.90
2022-12-03T11:51:29.399Z,3.90
2022-12-03T11:53:59.060Z,3.90
2022-12-03T11:56:29.013Z,3.90
2022-12-03T11:59:04.656Z,3.90
2022-12-03T12:01:39.077Z,3.90
2022-12-03T12:04:26.681Z,3.90
2022-12-03T12:06:53.963Z,3.90
2022-12-03T12:09:53.830Z,3.90
2022-12-03T12:12:31.610Z,3.90
2022-12-03T12:14:59.488Z,3.80
2022-12-03T12:17:34.428Z,3.80
2022-12-03T12:20:25.747Z,3.80
2022-12-03T12:22:54.817Z,3.80
2022-12-03T12:25:41.431Z,3.70
2022-12-03T12:28:08.975Z,3.70
2022-12-03T12:30:37.204Z,3.60
2022-12-03T12:33:10.630Z,3.60
2022-12-03T12:35:37.932Z,3.60
2022-12-03T12:38:08.709Z,3.60
2022-12-03T12:40:38.994Z,3.60
2022-12-03T12:43:16.497Z,3.70
2022-12-03T12:45:47.084Z,3.70
2022-12-03T12:48:45.545Z,3.60
2022-12-03T12:51:15.558Z,3.60
2022-12-03T12:53:43.098Z,3.60
2022-12-03T12:56:27.483Z,3.60
2022-12-03T12:58:57.020Z,3.60
2022-12-03T13:01:30.461Z,3.60
2022-12-03T13:03:59.677Z,3.60
2022-12-03T13:06:30.243Z,3.60
2022-12-03T13:09:07.420Z,3.70
2022-12-03T13:11:46.090Z,3.70
2022-12-03T13:14:20.785Z,3.60
2022-12-03T13:16:50.018Z,3.60
2022-12-03T13:19:22.827Z,3.60
2022-12-03T13:21:52.691Z,3.60
2022-12-03T13:24:30.497Z,3.50
2022-12-03T13:26:59.481Z,3.50
2022-12-03T13:29:27.589Z,3.50
2022-12-03T13:32:02.353Z,3.50
2022-12-03T13:34:34.971Z,3.50
2022-12-03T13:37:02.841Z,3.50
2022-12-03T13:39:32.888Z,3.50
2022-12-03T13:42:41.054Z,3.40
2022-12-03T13:45:14.095Z,3.40
2022-12-03T13:47:58.000Z,3.40
2022-12-03T13:50:36.566Z,3.30
2022-12-03T13:53:06.822Z,3.30
2022-12-03T13:55:35.218Z,3.30
2022-12-03T13:58:02.461Z,3.30
2022-12-03T14:00:29.737Z,3.30
2022-12-03T14:02:56.957Z,3.20
2022-12-03T14:05:24.178Z,3.10
2022-12-03T14:07:51.550Z,3.20
2022-12-03T14:10:18.799Z,3.10
2022-12-03T14:12:46.050Z,3.20
2022-12-03T14:15:13.445Z,3.20
2022-12-03T14:17:40.802Z,3.20
2022-12-03T14:20:11.605Z,3.20
2022-12-03T14:22:39.319Z,3.10
2022-12-03T14:25:07.694Z,3.10
2022-12-03T14:27:34.937Z,3.10
2022-12-03T14:30:02.302Z,3.10
2022-12-03T14:32:29.558Z,3.00
2022-12-03T14:34:56.988Z,3.00
2022-12-03T14:37:24.330Z,3.00
2022-12-03T14:39:51.847Z,3.00
2022-12-03T14:42:19.463Z,3.00
2022-12-03T14:44:48.860Z,3.00
2022-12-03T14:47:18.386Z,3.00
2022-12-03T14:49:45.903Z,2.90
2022-12-03T14:52:13.204Z,2.90
2022-12-03T14:54:44.717Z,2.80
2022-12-03T14:57:13.555Z,2.80
2022-12-03T14:59:44.885Z,2.80
2022-12-03T15:02:13.272Z,2.80
2022-12-03T15:04:41.668Z,2.80
2022-12-03T15:07:09.559Z,2.70
2022-12-03T15:09:36.929Z,2.70
2022-12-03T15:12:04.803Z,2.70
2022-12-03T15:14:32.078Z,2.70
2022-12-03T15:16:59.482Z,2.60
2022-12-03T15:19:26.802Z,2.70
2022-12-03T15:21:54.096Z,2.70
2022-12-03T15:24:21.418Z,2.70
2022-12-03T15:26:49.592Z,2.70
2022-12-03T15:29:16.912Z,2.60
2022-12-03T15:31:44.657Z,2.60
2022-12-03T15:34:12.791Z,2.60
2022-12-03T15:36:42.293Z,2.60
2022-12-03T15:39:09.530Z,2.60
2022-12-03T15:41:36.962Z,2.70
2022-12-03T15:44:04.290Z,2.60
2022-12-03T15:46:31.684Z,2.60
2022-12-03T15:48:59.227Z,2.60
2022-12-03T15:51:26.422Z,2.60
2022-12-03T15:53:54.375Z,2.50
2022-12-03T15:56:21.945Z,2.50
2022-12-03T15:58:49.428Z,2.50
2022-12-03T16:01:18.508Z,2.40
2022-12-03T16:03:45.967Z,2.40
2022-12-03T16:06:14.796Z,2.40
2022-12-03T16:08:42.117Z,2.40
2022-12-03T16:11:09.425Z,2.50
2022-12-03T16:13:36.636Z,2.40
2022-12-03T16:16:04.132Z,2.50
2022-12-03T16:18:32.189Z,2.50
2022-12-03T16:20:59.416Z,2.40
2022-12-03T16:23:26.705Z,2.50
2022-12-03T16:25:53.994Z,2.40
2022-12-03T16:28:21.153Z,2.50
2022-12-03T16:30:48.480Z,2.40
2022-12-03T16:33:15.685Z,2.40
2022-12-03T16:35:43.039Z,2.40
2022-12-03T16:38:10.278Z,2.40
2022-12-03T16:40:37.563Z,2.40
2022-12-03T16:43:05.040Z,2.40
2022-12-03T16:45:50.670Z,2.40
2022-12-03T16:48:19.083Z,2.40
2022-12-03T16:50:46.390Z,2.40
2022-12-03T16:53:14.368Z,2.40
2022-12-03T16:55:41.614Z,2.40
2022-12-03T16:58:08.885Z,2.40
2022-12-03T17:00:36.337Z,2.50
2022-12-03T17:03:03.823Z,2.40
2022-12-03T17:05:31.164Z,2.40
2022-12-03T17:07:58.692Z,2.30
2022-12-03T17:10:25.996Z,2.30
2022-12-03T17:13:09.956Z,2.40
2022-12-03T17:15:37.843Z,2.30
2022-12-03T17:18:05.583Z,2.30
2022-12-03T17:20:33.572Z,2.30
2022-12-03T17:23:00.963Z,2.30
2022-12-03T17:25:28.298Z,2.40
2022-12-03T17:27:55.528Z,2.40
2022-12-03T17:30:22.923Z,2.40
2022-12-03T17:32:50.574Z,2.40
2022-12-03T17:35:18.484Z,2.40
2022-12-03T17:37:45.991Z,2.40
2022-12-03T17:40:15.528Z,2.40
2022-12-03T17:42:42.872Z,2.30
2022-12-03T17:45:10.800Z,2.30
2022-12-03T17:47:38.086Z,2.30
2022-12-03T17:50:06.077Z,2.30
2022-12-03T17:52:33.431Z,2.30
2022-12-03T17:55:25.041Z,2.30
2022-12-03T17:57:47.888Z,2.30
2022-12-03T18:00:15.364Z,2.30
2022-12-03T18:02:42.748Z,2.30
2022-12-03T18:05:10.177Z,2.40
2022-12-03T18:07:37.444Z,2.40
2022-12-03T18:10:05.294Z,2.40
2022-12-03T18:12:32.767Z,2.40
2022-12-03T18:15:00.066Z,2.40
2022-12-03T18:17:27.361Z,2.40
2022-12-03T18:19:54.831Z,2.40
2022-12-03T18:22:22.402Z,2.40
2022-12-03T18:24:51.903Z,2.40
2022-12-03T18:27:21.418Z,2.40
2022-12-03T18:29:48.744Z,2.40
2022-12-03T18:32:28.186Z,2.40
2022-12-03T18:34:56.860Z,2.40
2022-12-03T18:37:27.984Z,2.40
2022-12-03T18:39:56.372Z,2.40
2022-12-03T18:42:24.227Z,2.40
2022-12-03T18:44:54.430Z,2.40
2022-12-03T18:47:26.685Z,2.40
2022-12-03T18:49:54.851Z,2.40
2022-12-03T18:52:23.841Z,2.40
2022-12-03T18:54:51.138Z,2.40
2022-12-03T18:57:18.421Z,2.40
2022-12-03T18:59:45.692Z,2.40
2022-12-03T19:02:45.885Z,2.40
2022-12-03T19:05:07.666Z,2.40
2022-12-03T19:07:35.004Z,2.40
2022-12-03T19:10:02.381Z,2.40
2022-12-03T19:12:29.999Z,2.40
2022-12-03T19:14:57.214Z,2.40
2022-12-03T19:17:24.525Z,2.40
2022-12-03T19:19:51.933Z,2.50
2022-12-03T19:22:19.466Z,2.40
2022-12-03T19:24:46.707Z,2.40
2022-12-03T19:27:14.317Z,2.40
2022-12-03T19:29:41.789Z,2.50
2022-12-03T19:32:09.155Z,2.50
2022-12-03T19:34:36.697Z,2.50
2022-12-03T19:37:04.022Z,2.50
2022-12-03T19:39:32.034Z,2.50
2022-12-03T19:41:59.528Z,2.50
2022-12-03T19:44:26.809Z,2.50
2022-12-03T19:46:54.462Z,2.50
2022-12-03T19:49:21.705Z,2.50
2022-12-03T19:51:48.964Z,2.50
2022-12-03T19:54:17.008Z,2.50
2022-12-03T19:56:44.509Z,2.50
2022-12-03T19:59:13.428Z,2.50
2022-12-03T20:01:43.186Z,2.50
2022-12-03T20:04:11.783Z,2.50
2022-12-03T20:06:39.604Z,2.50
2022-12-03T20:09:12.786Z,2.50
2022-12-03T20:11:41.516Z,2.50
2022-12-03T20:14:13.010Z,2.50
2022-12-03T20:16:40.662Z,2.50
2022-12-03T20:19:10.242Z,2.50
2022-12-03T20:21:38.698Z,2.50
2022-12-03T20:24:07.327Z,2.50
2022-12-03T20:26:34.842Z,2.50
2022-12-03T20:29:02.277Z,2.50
2022-12-03T20:31:31.336Z,2.50
2022-12-03T20:34:00.827Z,2.50
2022-12-03T20:36:29.413Z,2.50
2022-12-03T20:38:58.975Z,2.50
2022-12-03T20:41:26.323Z,2.50
2022-12-03T20:43:53.774Z,2.50
2022-12-03T20:46:24.151Z,2.50
2022-12-03T20:48:52.022Z,2.50
2022-12-03T20:51:22.166Z,2.60
2022-12-03T20:53:49.838Z,2.50
2022-12-03T20:56:20.292Z,2.50
2022-12-03T20:58:49.081Z,2.50
2022-12-03T21:01:25.079Z,2.50
2022-12-03T21:03:54.156Z,2.60
2022-12-03T21:06:23.398Z,2.50
2022-12-03T21:08:53.394Z,2.50
2022-12-03T21:11:24.235Z,2.50
2022-12-03T21:13:52.336Z,2.50
2022-12-03T21:16:39.401Z,2.50
2022-12-03T21:19:09.752Z,2.50
2022-12-03T21:21:37.128Z,2.60
2022-12-03T21:24:04.579Z,2.60
2022-12-03T21:26:31.853Z,2.50
2022-12-03T21:28:59.120Z,2.50
2022-12-03T21:31:27.166Z,2.50
2022-12-03T21:33:56.018Z,2.60
2022-12-03T21:36:24.437Z,2.60
2022-12-03T21:38:52.337Z,2.60
2022-12-03T21:41:19.629Z,2.60
2022-12-03T21:43:47.007Z,2.60
2022-12-03T21:47:10.411Z,2.60
2022-12-03T21:49:04.534Z,2.70
2022-12-03T21:51:31.889Z,2.60
2022-12-03T21:53:59.121Z,2.70
2022-12-03T21:56:26.372Z,2.60
2022-12-03T21:58:53.624Z,2.70
2022-12-03T22:01:23.221Z,2.60
2022-12-03T22:03:51.083Z,2.60
2022-12-03T22:06:18.963Z,2.70
2022-12-03T22:08:46.801Z,2.70
2022-12-03T22:11:19.196Z,2.70
2022-12-03T22:13:46.765Z,2.70
2022-12-03T22:16:16.667Z,2.70
2022-12-03T22:18:44.095Z,2.70
2022-12-03T22:21:15.938Z,2.70
2022-12-03T22:23:43.464Z,2.70
2022-12-03T22:26:16.958Z,2.70
2022-12-03T22:28:49.032Z,2.70
2022-12-03T22:31:17.788Z,2.70
2022-12-03T22:33:48.500Z,2.70
2022-12-03T22:36:21.146Z,2.70
2022-12-03T22:38:50.699Z,2.70
2022-12-03T22:41:19.078Z,2.80
2022-12-03T22:43:47.119Z,2.80
2022-12-03T22:46:15.774Z,2.80
2022-12-03T22:48:45.192Z,2.70
2022-12-03T22:51:14.828Z,2.70
2022-12-03T22:53:42.037Z,2.70
2022-12-03T22:56:09.321Z,2.70
2022-12-03T22:58:38.347Z,2.70
2022-12-03T23:01:07.505Z,2.70
2022-12-03T23:03:35.090Z,2.70
2022-12-03T23:06:09.591Z,2.70
2022-12-03T23:08:36.821Z,2.70
2022-12-03T23:11:04.114Z,2.70
2022-12-03T23:13:31.749Z,2.70
2022-12-03T23:15:59.077Z,2.70
2022-12-03T23:18:26.436Z,2.60
2022-12-03T23:20:56.042Z,2.70
2022-12-03T23:23:25.805Z,2.70
2022-12-03T23:25:57.550Z,2.70
2022-12-03T23:28:25.963Z,2.60
2022-12-03T23:30:53.477Z,2.70
2022-12-03T23:33:21.028Z,2.70
2022-12-03T23:35:48.759Z,2.70
2022-12-03T23:38:16.011Z,2.70
2022-12-03T23:40:47.867Z,2.70
2022-12-03T23:43:16.103Z,2.70
2022-12-03T23:45:43.550Z,2.80
2022-12-03T23:48:10.799Z,2.80
2022-12-03T23:50:41.512Z,2.80
2022-12-03T23:53:09.095Z,2.80
2022-12-03T23:55:40.488Z,2.80
2022-12-03T23:58:07.880Z,2.80
